Time;durP1;ratioP1;P1;durP2;ratioP2;P2;SDS_P1;SDS_P2;PMS_P1;PMS_P2;Temp;Humidity;BMP_temperature;BMP_pressure;BME280_temperature;BME280_humidity;BME280_pressure;Samples;Min_cycle;Max_cycle;Signal;HPM_P1;HPM_P2
2022/03/03 00:00:13;;;;;;;74.30;41.00;;;;;;;;;;5075686;28;20397;-63
2022/03/03 00:02:40;;;;;;;81.50;42.10;;;;;;;;;;5093960;28;20044;-63
2022/03/03 00:05:06;;;;;;;76.55;40.55;;;;;;;;;;5094086;28;20513;-63
2022/03/03 00:07:32;;;;;;;82.38;40.42;;;;;;;;;;5093492;28;20058;-63
2022/03/03 00:09:58;;;;;;;82.35;42.05;;;;;;;;;;5093597;28;20040;-63
2022/03/03 00:12:25;;;;;;;78.38;39.10;;;;;;;;;;5093646;28;20048;-63
2022/03/03 00:14:51;;;;;;;76.78;41.38;;;;;;;;;;5093433;28;20123;-63
2022/03/03 00:17:17;;;;;;;77.78;41.63;;;;;;;;;;5075304;28;20059;-63
2022/03/03 00:19:44;;;;;;;85.10;40.90;;;;;;;;;;5075847;28;20055;-63
2022/03/03 00:22:11;;;;;;;79.65;40.45;;;;;;;;;;5093137;28;20174;-63
2022/03/03 00:24:37;;;;;;;79.05;40.40;;;;;;;;;;5075376;28;20498;-63
2022/03/03 00:27:05;;;;;;;80.47;39.65;;;;;;;;;;5093559;28;20080;-63
2022/03/03 00:29:31;;;;;;;72.60;39.60;;;;;;;;;;5074708;28;20048;-63
2022/03/03 00:31:57;;;;;;;81.38;40.53;;;;;;;;;;5093129;28;20093;-63
2022/03/03 00:34:23;;;;;;;76.22;37.95;;;;;;;;;;5093456;28;20058;-63
2022/03/03 00:36:50;;;;;;;71.22;37.15;;;;;;;;;;5092812;28;20051;-63
2022/03/03 00:39:16;;;;;;;86.38;41.50;;;;;;;;;;5093081;28;20128;-63
2022/03/03 00:41:42;;;;;;;79.78;40.45;;;;;;;;;;5093202;28;20044;-63
2022/03/03 00:44:09;;;;;;;74.13;35.60;;;;;;;;;;5092552;28;20055;-63
2022/03/03 00:46:36;;;;;;;78.00;39.20;;;;;;;;;;5108898;28;20060;-63
2022/03/03 00:49:03;;;;;;;82.47;40.47;;;;;;;;;;5074353;28;20051;-63
2022/03/03 00:51:29;;;;;;;76.25;39.28;;;;;;;;;;5092811;28;20543;-63
2022/03/03 00:53:55;;;;;;;85.35;40.78;;;;;;;;;;5092936;28;20047;-63
2022/03/03 00:56:21;;;;;;;74.78;37.63;;;;;;;;;;5074544;28;20135;-63
2022/03/03 00:58:48;;;;;;;79.25;40.80;;;;;;;;;;5107793;28;20052;-63
2022/03/03 01:01:14;;;;;;;83.68;41.90;;;;;;;;;;5074553;28;20039;-63
2022/03/03 01:03:40;;;;;;;84.90;42.00;;;;;;;;;;5092309;28;20052;-63
2022/03/03 01:06:06;;;;;;;83.68;39.28;;;;;;;;;;5092518;28;20051;-62
2022/03/03 01:08:33;;;;;;;86.18;41.13;;;;;;;;;;5092848;28;20043;-62
2022/03/03 01:10:59;;;;;;;83.57;41.15;;;;;;;;;;5092350;28;20044;-62
2022/03/03 01:13:25;;;;;;;79.53;40.35;;;;;;;;;;5092492;28;20561;-62
2022/03/03 01:15:53;;;;;;;87.07;40.90;;;;;;;;;;5092740;28;20097;-63
2022/03/03 01:18:19;;;;;;;85.47;42.03;;;;;;;;;;5091981;28;20483;-62
2022/03/03 01:20:46;;;;;;;85.28;40.70;;;;;;;;;;5092501;28;20467;-63
2022/03/03 01:23:12;;;;;;;87.53;40.22;;;;;;;;;;5092762;28;20051;-62
2022/03/03 01:25:39;;;;;;;77.75;39.80;;;;;;;;;;5092174;28;20048;-62
2022/03/03 01:28:05;;;;;;;86.55;40.90;;;;;;;;;;5092527;28;20097;-63
2022/03/03 01:30:32;;;;;;;85.90;43.17;;;;;;;;;;5092643;28;20111;-62
2022/03/03 01:32:58;;;;;;;87.60;42.90;;;;;;;;;;5092008;28;20113;-63
2022/03/03 01:35:24;;;;;;;87.72;41.38;;;;;;;;;;5074247;28;20345;-63
2022/03/03 01:37:50;;;;;;;89.10;41.78;;;;;;;;;;5092354;28;20090;-62
2022/03/03 01:40:16;;;;;;;86.07;42.53;;;;;;;;;;5091615;28;20148;-62
2022/03/03 01:42:42;;;;;;;87.75;42.20;;;;;;;;;;5092518;28;20123;-63
2022/03/03 01:45:09;;;;;;;92.65;43.60;;;;;;;;;;5091753;28;20406;-63
2022/03/03 01:47:35;;;;;;;84.93;41.80;;;;;;;;;;5066644;28;20041;-63
2022/03/03 01:50:02;;;;;;;86.97;42.15;;;;;;;;;;5052240;28;20119;-62
2022/03/03 01:52:28;;;;;;;83.55;39.75;;;;;;;;;;5067085;28;20045;-63
2022/03/03 01:54:54;;;;;;;82.57;40.33;;;;;;;;;;5051925;28;20143;-63
2022/03/03 01:57:22;;;;;;;90.13;42.08;;;;;;;;;;5033953;28;20120;-63
2022/03/03 01:59:48;;;;;;;87.00;41.78;;;;;;;;;;5051201;28;20133;-63
2022/03/03 02:02:14;;;;;;;85.07;42.38;;;;;;;;;;5033873;28;20053;-63
2022/03/03 02:04:41;;;;;;;88.80;43.13;;;;;;;;;;5051821;28;20041;-62
2022/03/03 02:07:09;;;;;;;86.82;43.13;;;;;;;;;;5051425;28;20116;-63
2022/03/03 02:09:35;;;;;;;91.15;42.08;;;;;;;;;;5053989;28;20047;-62
2022/03/03 02:12:02;;;;;;;90.35;44.13;;;;;;;;;;5055939;28;20056;-62
2022/03/03 02:14:28;;;;;;;86.90;42.50;;;;;;;;;;5055430;28;20111;-62
2022/03/03 02:16:54;;;;;;;86.30;40.50;;;;;;;;;;5037721;28;20052;-62
2022/03/03 02:19:21;;;;;;;84.70;42.85;;;;;;;;;;5055670;28;20102;-63
2022/03/03 02:21:49;;;;;;;86.00;42.00;;;;;;;;;;5055672;28;20044;-62
2022/03/03 02:24:16;;;;;;;85.75;43.97;;;;;;;;;;5055807;28;20369;-62
2022/03/03 02:26:42;;;;;;;85.05;41.17;;;;;;;;;;5055786;28;20041;-62
2022/03/03 02:29:08;;;;;;;88.32;40.78;;;;;;;;;;5055142;28;20419;-62
2022/03/03 02:31:35;;;;;;;85.53;41.42;;;;;;;;;;5037704;28;20401;-62
2022/03/03 02:34:01;;;;;;;86.35;42.30;;;;;;;;;;5055465;28;20052;-62
2022/03/03 02:36:28;;;;;;;82.28;40.42;;;;;;;;;;5070185;28;20063;-62
2022/03/03 02:38:55;;;;;;;83.25;41.90;;;;;;;;;;5055640;28;20049;-63
2022/03/03 02:41:21;;;;;;;92.07;41.58;;;;;;;;;;5055777;28;20045;-62
2022/03/03 02:43:48;;;;;;;86.95;40.60;;;;;;;;;;5054971;28;20051;-62
2022/03/03 02:46:14;;;;;;;82.35;41.53;;;;;;;;;;5055351;28;20120;-63
2022/03/03 02:48:41;;;;;;;85.10;42.38;;;;;;;;;;5054709;28;20437;-62
2022/03/03 02:51:07;;;;;;;88.65;43.33;;;;;;;;;;5037486;28;20076;-62
2022/03/03 02:53:34;;;;;;;79.07;41.85;;;;;;;;;;5055395;28;20099;-62
2022/03/03 02:56:01;;;;;;;84.18;41.28;;;;;;;;;;5069908;28;20049;-62
2022/03/03 02:58:27;;;;;;;81.45;40.35;;;;;;;;;;5069935;28;20049;-62
2022/03/03 03:00:53;;;;;;;84.32;41.92;;;;;;;;;;5037387;28;20434;-62
2022/03/03 03:03:19;;;;;;;83.60;40.25;;;;;;;;;;5054677;28;20139;-62
2022/03/03 03:05:46;;;;;;;90.68;41.03;;;;;;;;;;5070283;28;20132;-63
2022/03/03 03:08:12;;;;;;;77.28;39.92;;;;;;;;;;5055189;28;20067;-62
2022/03/03 03:10:39;;;;;;;82.35;41.40;;;;;;;;;;5054339;28;20037;-63
2022/03/03 03:13:06;;;;;;;78.65;39.28;;;;;;;;;;5054610;28;20115;-62
2022/03/03 03:15:32;;;;;;;80.43;39.15;;;;;;;;;;5054836;28;20037;-62
2022/03/03 03:18:09;;;;;;;86.93;41.38;;;;;;;;;;5069534;28;20048;-63
2022/03/03 03:20:35;;;;;;;79.55;37.63;;;;;;;;;;5053241;28;20045;-63
2022/03/03 03:23:01;;;;;;;76.63;39.15;;;;;;;;;;5054783;28;20093;-62
2022/03/03 03:25:27;;;;;;;78.88;39.35;;;;;;;;;;5054024;28;20045;-62
2022/03/03 03:27:54;;;;;;;84.35;40.42;;;;;;;;;;5069910;28;20047;-62
2022/03/03 03:30:20;;;;;;;78.10;39.42;;;;;;;;;;5053282;28;20041;-62
2022/03/03 03:32:46;;;;;;;73.72;36.85;;;;;;;;;;5069165;28;20432;-62
2022/03/03 03:35:12;;;;;;;73.03;37.05;;;;;;;;;;5069733;28;20045;-62
2022/03/03 03:37:38;;;;;;;74.28;37.33;;;;;;;;;;5069333;28;20060;-62
2022/03/03 03:40:05;;;;;;;82.05;39.53;;;;;;;;;;5069350;28;20538;-62
2022/03/03 03:42:31;;;;;;;81.22;40.28;;;;;;;;;;5054439;28;20045;-62
2022/03/03 03:44:57;;;;;;;84.78;40.05;;;;;;;;;;5053921;28;20120;-62
2022/03/03 03:47:24;;;;;;;79.28;40.47;;;;;;;;;;5054252;28;20460;-62
2022/03/03 03:49:50;;;;;;;88.05;40.65;;;;;;;;;;5054165;28;20041;-63
2022/03/03 03:52:16;;;;;;;82.75;41.00;;;;;;;;;;5053627;28;20045;-62
2022/03/03 03:54:42;;;;;;;84.75;40.72;;;;;;;;;;5053978;28;20041;-63
2022/03/03 03:57:08;;;;;;;80.88;39.38;;;;;;;;;;5069524;28;20049;-62
2022/03/03 03:59:35;;;;;;;77.05;38.80;;;;;;;;;;5053328;28;20041;-62
2022/03/03 04:02:01;;;;;;;79.75;40.40;;;;;;;;;;5053891;28;20119;-63
2022/03/03 04:04:27;;;;;;;77.35;38.03;;;;;;;;;;5053988;28;20049;-62
2022/03/03 04:06:53;;;;;;;80.47;40.35;;;;;;;;;;5053248;28;20055;-62
2022/03/03 04:09:19;;;;;;;84.65;37.80;;;;;;;;;;5053694;28;20053;-62
2022/03/03 04:11:45;;;;;;;76.53;39.55;;;;;;;;;;5035694;28;20492;-63
2022/03/03 04:14:12;;;;;;;79.50;38.33;;;;;;;;;;5053071;28;20049;-62
2022/03/03 04:16:38;;;;;;;76.10;38.63;;;;;;;;;;5053640;28;20040;-62
2022/03/03 04:19:05;;;;;;;78.05;36.50;;;;;;;;;;5068929;28;20056;-63
2022/03/03 04:21:31;;;;;;;76.03;39.22;;;;;;;;;;5035200;28;20044;-62
2022/03/03 04:23:57;;;;;;;75.57;37.40;;;;;;;;;;5035892;28;20047;-62
2022/03/03 04:26:23;;;;;;;78.40;38.85;;;;;;;;;;5053439;28;20033;-62
2022/03/03 04:28:49;;;;;;;73.93;37.10;;;;;;;;;;5052831;28;20044;-63
2022/03/03 04:31:16;;;;;;;74.53;36.58;;;;;;;;;;5053569;28;20390;-62
2022/03/03 04:33:42;;;;;;;75.28;37.17;;;;;;;;;;5053360;28;20167;-62
2022/03/03 04:36:09;;;;;;;73.55;38.47;;;;;;;;;;5068227;28;20408;-62
2022/03/03 04:38:35;;;;;;;76.30;37.67;;;;;;;;;;5053274;28;20048;-62
2022/03/03 04:41:01;;;;;;;71.80;36.45;;;;;;;;;;5052719;28;20175;-62
2022/03/03 04:43:27;;;;;;;68.38;35.95;;;;;;;;;;5053074;28;20178;-62
2022/03/03 04:45:54;;;;;;;71.30;37.67;;;;;;;;;;5035404;28;20057;-62
2022/03/03 04:48:20;;;;;;;69.47;35.95;;;;;;;;;;5052521;28;20095;-63
2022/03/03 04:50:46;;;;;;;73.22;36.90;;;;;;;;;;5067808;28;20052;-62
2022/03/03 04:53:12;;;;;;;73.20;37.75;;;;;;;;;;5068129;28;20048;-62
2022/03/03 04:55:38;;;;;;;66.80;35.20;;;;;;;;;;5052404;28;20045;-63
2022/03/03 04:58:08;;;;;;;67.72;36.90;;;;;;;;;;5034533;28;20065;-62
2022/03/03 05:00:34;;;;;;;67.97;35.13;;;;;;;;;;5052657;28;20041;-62
2022/03/03 05:03:00;;;;;;;69.22;36.78;;;;;;;;;;5052063;28;20071;-62
2022/03/03 05:05:26;;;;;;;67.15;35.05;;;;;;;;;;5052460;28;20045;-62
2022/03/03 05:07:52;;;;;;;75.80;36.50;;;;;;;;;;5052793;28;20385;-62
2022/03/03 05:10:18;;;;;;;80.60;36.65;;;;;;;;;;5067212;28;20041;-62
2022/03/03 05:12:44;;;;;;;63.35;33.42;;;;;;;;;;5052374;28;20052;-63
2022/03/03 05:15:11;;;;;;;64.53;32.30;;;;;;;;;;5052942;28;20397;-62
2022/03/03 05:17:37;;;;;;;71.65;36.13;;;;;;;;;;5051981;28;20066;-62
2022/03/03 05:20:04;;;;;;;68.47;34.85;;;;;;;;;;5034580;28;20049;-62
2022/03/03 05:22:30;;;;;;;72.18;34.42;;;;;;;;;;5067545;28;20124;-62
2022/03/03 05:24:56;;;;;;;72.93;35.92;;;;;;;;;;5051578;28;20458;-62
2022/03/03 05:27:22;;;;;;;64.70;33.72;;;;;;;;;;5052214;28;20045;-62
2022/03/03 05:29:48;;;;;;;67.10;35.10;;;;;;;;;;5052461;28;20088;-62
2022/03/03 05:32:14;;;;;;;65.18;33.40;;;;;;;;;;5051376;28;20469;-62
2022/03/03 05:34:40;;;;;;;60.10;32.20;;;;;;;;;;5052456;28;20132;-63
2022/03/03 05:37:06;;;;;;;65.30;33.60;;;;;;;;;;5052222;28;20037;-63
2022/03/03 05:39:33;;;;;;;66.53;33.03;;;;;;;;;;5066947;28;20045;-62
2022/03/03 05:41:59;;;;;;;63.58;32.38;;;;;;;;;;5052194;28;20048;-62
2022/03/03 05:44:25;;;;;;;63.03;32.13;;;;;;;;;;5066149;28;20048;-63
2022/03/03 05:46:51;;;;;;;64.43;33.45;;;;;;;;;;5051849;28;20500;-62
2022/03/03 05:49:19;;;;;;;66.35;34.30;;;;;;;;;;5067502;28;20141;-62
2022/03/03 05:51:45;;;;;;;64.05;32.72;;;;;;;;;;5051268;28;20130;-62
2022/03/03 05:54:11;;;;;;;64.50;33.58;;;;;;;;;;5051576;28;20131;-62
2022/03/03 05:56:38;;;;;;;61.72;31.52;;;;;;;;;;5051949;28;20092;-62
2022/03/03 05:59:06;;;;;;;58.33;30.20;;;;;;;;;;5051582;28;20071;-62
2022/03/03 06:01:36;;;;;;;66.22;32.03;;;;;;;;;;5067333;28;20422;-62
2022/03/03 06:04:02;;;;;;;57.85;32.35;;;;;;;;;;5051934;28;20045;-62
2022/03/03 06:06:31;;;;;;;60.47;32.33;;;;;;;;;;5066812;28;20083;-62
2022/03/03 06:09:04;;;;;;;61.97;31.90;;;;;;;;;;5051720;28;20128;-62
2022/03/03 06:11:31;;;;;;;61.70;31.52;;;;;;;;;;5052019;28;20060;-62
2022/03/03 06:14:05;;;;;;;62.53;33.17;;;;;;;;;;5033173;28;20139;-62
2022/03/03 06:16:31;;;;;;;57.20;31.27;;;;;;;;;;5051784;28;20400;-63
2022/03/03 06:18:59;;;;;;;59.97;31.92;;;;;;;;;;5051892;28;20045;-62
2022/03/03 06:21:25;;;;;;;62.58;31.65;;;;;;;;;;5050884;28;20049;-63
2022/03/03 06:23:51;;;;;;;59.05;31.90;;;;;;;;;;5067089;28;20055;-63
2022/03/03 06:26:18;;;;;;;66.05;32.30;;;;;;;;;;5051851;28;20076;-62
2022/03/03 06:28:45;;;;;;;56.25;31.58;;;;;;;;;;5050913;28;20045;-62
2022/03/03 06:31:11;;;;;;;59.60;31.83;;;;;;;;;;5051670;28;20055;-63
2022/03/03 06:33:38;;;;;;;63.25;32.53;;;;;;;;;;5050812;28;20074;-62
2022/03/03 06:36:04;;;;;;;58.97;31.48;;;;;;;;;;5066757;28;20045;-62
2022/03/03 06:38:31;;;;;;;61.67;32.53;;;;;;;;;;5033518;28;20131;-62
2022/03/03 06:40:57;;;;;;;63.65;34.60;;;;;;;;;;5051205;28;20481;-62
2022/03/03 06:43:24;;;;;;;60.17;31.88;;;;;;;;;;5051286;28;20159;-62
2022/03/03 06:45:51;;;;;;;61.15;32.60;;;;;;;;;;5051424;28;20041;-62
2022/03/03 06:48:17;;;;;;;66.50;32.92;;;;;;;;;;5051121;28;20045;-62
2022/03/03 06:50:43;;;;;;;64.40;35.13;;;;;;;;;;5051416;28;20522;-62
2022/03/03 06:53:10;;;;;;;66.10;35.60;;;;;;;;;;5051447;28;20057;-63
2022/03/03 06:55:37;;;;;;;65.82;34.10;;;;;;;;;;5052885;28;20045;-62
2022/03/03 06:58:04;;;;;;;64.70;33.80;;;;;;;;;;5070202;28;20049;-62
2022/03/03 07:00:35;;;;;;;65.65;34.60;;;;;;;;;;5070498;28;20342;-62
2022/03/03 07:03:02;;;;;;;65.40;34.50;;;;;;;;;;5036897;28;20065;-62
2022/03/03 07:05:29;;;;;;;66.97;34.30;;;;;;;;;;5070520;28;20045;-62
2022/03/03 07:07:55;;;;;;;64.47;31.88;;;;;;;;;;5055152;28;20128;-62
2022/03/03 07:10:24;;;;;;;66.93;33.83;;;;;;;;;;5054154;28;20111;-62
2022/03/03 07:12:52;;;;;;;61.55;32.80;;;;;;;;;;5037000;28;20052;-62
2022/03/03 07:15:19;;;;;;;62.55;32.65;;;;;;;;;;5070148;28;20076;-62
2022/03/03 07:17:47;;;;;;;61.78;31.92;;;;;;;;;;5054086;28;20068;-62
2022/03/03 07:20:16;;;;;;;57.03;31.30;;;;;;;;;;5037015;28;20369;-62
2022/03/03 07:23:03;;;;;;;62.35;34.97;;;;;;;;;;5036299;28;20152;-63
2022/03/03 07:25:38;;;;;;;59.38;30.95;;;;;;;;;;5053984;28;20041;-62
2022/03/03 07:28:06;;;;;;;62.15;32.47;;;;;;;;;;5054664;28;20047;-62
2022/03/03 07:30:33;;;;;;;60.03;31.20;;;;;;;;;;5054078;28;20040;-62
2022/03/03 07:33:06;;;;;;;58.17;31.08;;;;;;;;;;5054329;28;20045;-62
2022/03/03 07:35:33;;;;;;;63.20;32.60;;;;;;;;;;5054553;28;20044;-62
2022/03/03 07:38:03;;;;;;;63.25;32.13;;;;;;;;;;5053353;28;20045;-64
2022/03/03 07:40:30;;;;;;;57.95;30.88;;;;;;;;;;5054609;28;20040;-63
2022/03/03 07:42:57;;;;;;;55.38;30.13;;;;;;;;;;5054439;28;20443;-63
2022/03/03 07:45:23;;;;;;;59.88;31.33;;;;;;;;;;5053537;28;20051;-63
2022/03/03 07:47:51;;;;;;;56.17;31.75;;;;;;;;;;5054301;28;20040;-63
2022/03/03 07:50:17;;;;;;;57.75;30.88;;;;;;;;;;5070055;28;20361;-63
2022/03/03 07:52:44;;;;;;;56.33;30.65;;;;;;;;;;5053140;28;20374;-63
2022/03/03 07:55:10;;;;;;;64.68;31.40;;;;;;;;;;5054314;28;20465;-63
2022/03/03 07:57:40;;;;;;;54.53;30.85;;;;;;;;;;5053827;28;20083;-63
2022/03/03 08:00:08;;;;;;;58.63;31.35;;;;;;;;;;5053342;28;20166;-63
2022/03/03 08:02:34;;;;;;;52.08;28.15;;;;;;;;;;5054175;28;20049;-63
2022/03/03 08:05:02;;;;;;;54.30;29.42;;;;;;;;;;5053531;28;20052;-63
2022/03/03 08:07:29;;;;;;;50.65;29.42;;;;;;;;;;5068519;28;20068;-63
2022/03/03 08:09:59;;;;;;;53.80;29.23;;;;;;;;;;5053972;28;20059;-63
2022/03/03 08:12:26;;;;;;;60.40;31.33;;;;;;;;;;5053264;28;20051;-63
2022/03/03 08:14:53;;;;;;;52.20;29.10;;;;;;;;;;5035805;28;20080;-63
2022/03/03 08:17:20;;;;;;;54.40;30.83;;;;;;;;;;5053659;28;20127;-63
2022/03/03 08:19:46;;;;;;;56.67;29.70;;;;;;;;;;5052822;28;20053;-63
2022/03/03 08:22:13;;;;;;;50.13;28.63;;;;;;;;;;5053399;28;20045;-63
2022/03/03 08:24:43;;;;;;;50.17;29.65;;;;;;;;;;5035889;28;20099;-63
2022/03/03 08:27:11;;;;;;;55.75;29.98;;;;;;;;;;5052599;28;20103;-63
2022/03/03 08:29:37;;;;;;;51.38;28.30;;;;;;;;;;5035375;28;20049;-63
2022/03/03 08:32:09;;;;;;;55.65;31.48;;;;;;;;;;5053478;28;20448;-63
2022/03/03 08:34:48;;;;;;;56.83;30.00;;;;;;;;;;5052402;28;20131;-63
2022/03/03 08:37:18;;;;;;;51.63;29.30;;;;;;;;;;5053527;28;20041;-63
2022/03/03 08:39:45;;;;;;;51.05;29.30;;;;;;;;;;5053202;28;20156;-63
2022/03/03 08:42:14;;;;;;;56.38;30.45;;;;;;;;;;5034611;28;20045;-63
2022/03/03 08:44:42;;;;;;;51.17;29.40;;;;;;;;;;5053172;28;20080;-63
2022/03/03 08:47:09;;;;;;;54.30;30.48;;;;;;;;;;5052625;28;20116;-63
2022/03/03 08:49:39;;;;;;;51.25;30.05;;;;;;;;;;5052941;28;20045;-63
2022/03/03 08:52:06;;;;;;;48.03;28.80;;;;;;;;;;5053268;28;20120;-63
2022/03/03 08:54:32;;;;;;;47.17;28.60;;;;;;;;;;5052401;28;20440;-63
2022/03/03 08:56:58;;;;;;;48.60;28.70;;;;;;;;;;5052510;28;20369;-63
2022/03/03 08:59:25;;;;;;;55.25;29.83;;;;;;;;;;5068247;28;20141;-63
2022/03/03 09:01:51;;;;;;;46.17;25.95;;;;;;;;;;5052241;28;20045;-63
2022/03/03 09:04:18;;;;;;;49.80;28.88;;;;;;;;;;5052752;28;20045;-63
2022/03/03 09:06:45;;;;;;;49.92;28.77;;;;;;;;;;5052912;28;20041;-63
2022/03/03 09:09:12;;;;;;;47.47;27.73;;;;;;;;;;5034141;28;20060;-63
2022/03/03 09:11:39;;;;;;;49.10;28.67;;;;;;;;;;5052558;28;20040;-63
2022/03/03 09:14:07;;;;;;;43.70;26.05;;;;;;;;;;5052620;28;20132;-63
2022/03/03 09:16:34;;;;;;;45.00;27.25;;;;;;;;;;5052071;28;20098;-63
2022/03/03 09:19:00;;;;;;;45.60;27.45;;;;;;;;;;5051794;28;20484;-63
2022/03/03 09:21:28;;;;;;;43.97;26.95;;;;;;;;;;5034634;28;20057;-63
2022/03/03 09:23:54;;;;;;;47.45;25.90;;;;;;;;;;5034019;28;20372;-63
2022/03/03 09:26:21;;;;;;;44.33;26.85;;;;;;;;;;5052332;28;20076;-63
2022/03/03 09:28:48;;;;;;;43.15;26.88;;;;;;;;;;5052576;28;20053;-63
2022/03/03 09:31:14;;;;;;;41.95;25.75;;;;;;;;;;5051402;28;20084;-63
2022/03/03 09:33:40;;;;;;;39.63;24.10;;;;;;;;;;5052569;28;20041;-63
2022/03/03 09:36:06;;;;;;;42.17;22.98;;;;;;;;;;5052252;28;20045;-63
2022/03/03 09:38:33;;;;;;;36.10;22.05;;;;;;;;;;5033773;28;20053;-63
2022/03/03 09:40:59;;;;;;;36.33;22.85;;;;;;;;;;5052088;28;20477;-63
2022/03/03 09:43:26;;;;;;;37.13;21.67;;;;;;;;;;5033780;28;20492;-63
2022/03/03 09:45:52;;;;;;;33.25;20.73;;;;;;;;;;5052033;28;20056;-63
2022/03/03 09:48:18;;;;;;;36.63;21.63;;;;;;;;;;5067449;28;20049;-63
2022/03/03 09:50:44;;;;;;;34.45;20.98;;;;;;;;;;5051469;28;20152;-63
2022/03/03 09:53:13;;;;;;;35.20;21.17;;;;;;;;;;5067199;28;20128;-63
2022/03/03 09:55:40;;;;;;;33.95;21.65;;;;;;;;;;5067622;28;20032;-63
2022/03/03 09:58:06;;;;;;;33.53;21.30;;;;;;;;;;5051266;28;20140;-63
2022/03/03 10:00:36;;;;;;;41.70;22.40;;;;;;;;;;5051658;28;20055;-63
2022/03/03 10:03:08;;;;;;;34.75;20.13;;;;;;;;;;5052056;28;20040;-63
2022/03/03 10:05:36;;;;;;;31.27;18.77;;;;;;;;;;5051184;28;20102;-63
2022/03/03 10:08:03;;;;;;;34.28;19.75;;;;;;;;;;5051830;28;20047;-64
2022/03/03 10:10:30;;;;;;;33.17;20.05;;;;;;;;;;5051936;28;20044;-64
2022/03/03 10:12:57;;;;;;;30.05;20.63;;;;;;;;;;5051054;28;20051;-64
2022/03/03 10:15:28;;;;;;;31.05;19.40;;;;;;;;;;5067340;28;20122;-64
2022/03/03 10:17:59;;;;;;;30.65;19.58;;;;;;;;;;5051891;28;20045;-64
2022/03/03 10:20:25;;;;;;;35.85;20.23;;;;;;;;;;5066515;28;20400;-64
2022/03/03 10:22:57;;;;;;;37.90;19.58;;;;;;;;;;5067081;28;20048;-64
2022/03/03 10:25:29;;;;;;;33.00;19.88;;;;;;;;;;5051896;28;20072;-64
2022/03/03 10:27:55;;;;;;;28.10;17.90;;;;;;;;;;5050895;28;20088;-64
2022/03/03 10:30:21;;;;;;;27.67;18.00;;;;;;;;;;5068803;28;20049;-64
2022/03/03 10:32:48;;;;;;;29.27;18.88;;;;;;;;;;5070424;28;20049;-63
2022/03/03 10:35:15;;;;;;;30.13;17.55;;;;;;;;;;5055313;28;20041;-64
2022/03/03 10:37:42;;;;;;;29.75;18.42;;;;;;;;;;5055719;28;20047;-63
2022/03/03 10:40:10;;;;;;;30.15;18.48;;;;;;;;;;5055108;28;20143;-62
2022/03/03 10:42:38;;;;;;;30.45;18.38;;;;;;;;;;5055288;28;20071;-61
2022/03/03 10:45:06;;;;;;;29.17;17.13;;;;;;;;;;5037526;28;20127;-61
2022/03/03 10:47:32;;;;;;;24.90;16.50;;;;;;;;;;5053328;28;20057;-62
2022/03/03 10:50:00;;;;;;;24.05;16.10;;;;;;;;;;5055245;28;20040;-63
2022/03/03 10:52:28;;;;;;;26.85;17.25;;;;;;;;;;5055380;28;20415;-64
2022/03/03 10:54:56;;;;;;;27.20;17.25;;;;;;;;;;5069643;28;20056;-64
2022/03/03 10:57:29;;;;;;;31.35;18.33;;;;;;;;;;5070276;28;20056;-64
2022/03/03 10:59:58;;;;;;;29.05;18.02;;;;;;;;;;5055174;28;20049;-64
2022/03/03 11:02:27;;;;;;;26.65;16.55;;;;;;;;;;5054145;28;20137;-64
2022/03/03 11:04:53;;;;;;;24.13;15.77;;;;;;;;;;5037040;28;20049;-64
2022/03/03 11:07:21;;;;;;;29.38;16.55;;;;;;;;;;5055180;28;20041;-63
2022/03/03 11:09:48;;;;;;;26.88;16.80;;;;;;;;;;5036486;28;20070;-63
2022/03/03 11:12:14;;;;;;;25.55;16.10;;;;;;;;;;5054998;28;20047;-64
2022/03/03 11:14:40;;;;;;;25.00;15.50;;;;;;;;;;5036721;28;20214;-64
2022/03/03 11:17:07;;;;;;;25.80;17.25;;;;;;;;;;5054410;28;20041;-64
2022/03/03 11:19:34;;;;;;;28.20;15.70;;;;;;;;;;5055048;28;20049;-64
2022/03/03 11:22:00;;;;;;;25.27;16.38;;;;;;;;;;5054262;28;20087;-64
2022/03/03 11:24:26;;;;;;;22.88;15.63;;;;;;;;;;5054609;28;20041;-64
2022/03/03 11:26:53;;;;;;;25.02;16.77;;;;;;;;;;5054598;28;20132;-64
2022/03/03 11:29:20;;;;;;;20.92;15.23;;;;;;;;;;5054004;28;20120;-64
2022/03/03 11:32:00;;;;;;;20.98;14.55;;;;;;;;;;5054514;28;20048;-64
2022/03/03 11:34:32;;;;;;;21.60;15.32;;;;;;;;;;5054521;28;20121;-64
2022/03/03 11:37:01;;;;;;;21.65;14.50;;;;;;;;;;5053694;28;20370;-64
2022/03/03 11:39:37;;;;;;;18.42;13.25;;;;;;;;;;5036912;28;20055;-64
2022/03/03 11:42:17;;;;;;;18.27;13.35;;;;;;;;;;5053724;28;20400;-64
2022/03/03 11:44:43;;;;;;;19.17;14.00;;;;;;;;;;5068803;28;20483;-64
2022/03/03 11:47:18;;;;;;;17.20;12.85;;;;;;;;;;5054349;28;20099;-64
2022/03/03 11:50:02;;;;;;;19.13;12.77;;;;;;;;;;5054348;28;20049;-64
2022/03/03 11:52:28;;;;;;;18.73;12.60;;;;;;;;;;5053910;28;20400;-64
2022/03/03 11:54:56;;;;;;;17.60;13.13;;;;;;;;;;5036278;28;20053;-64
2022/03/03 11:57:24;;;;;;;19.88;13.10;;;;;;;;;;5053429;28;20061;-64
2022/03/03 11:59:50;;;;;;;20.50;13.20;;;;;;;;;;5035891;28;20114;-64
2022/03/03 12:02:17;;;;;;;15.30;12.18;;;;;;;;;;5054027;28;20033;-64
2022/03/03 12:04:44;;;;;;;14.80;11.98;;;;;;;;;;5053185;28;20076;-64
2022/03/03 12:07:27;;;;;;;15.32;11.13;;;;;;;;;;5054108;28;20041;-64
2022/03/03 12:09:53;;;;;;;12.02;9.80;;;;;;;;;;5053987;28;20090;-64
2022/03/03 12:12:20;;;;;;;15.75;11.32;;;;;;;;;;5053177;28;20037;-64
2022/03/03 12:14:54;;;;;;;14.82;9.95;;;;;;;;;;5036021;28;20049;-64
2022/03/03 12:17:36;;;;;;;15.35;11.32;;;;;;;;;;5069177;28;20068;-64
2022/03/03 12:20:37;;;;;;;17.52;13.23;;;;;;;;;;5053063;28;20055;-64
2022/03/03 12:23:03;;;;;;;14.32;11.85;;;;;;;;;;5053666;28;20060;-64
2022/03/03 12:25:48;;;;;;;17.15;13.80;;;;;;;;;;5052958;28;20072;-64
2022/03/03 12:28:16;;;;;;;17.48;13.00;;;;;;;;;;5053606;28;20063;-64
2022/03/03 12:30:43;;;;;;;17.00;13.45;;;;;;;;;;5036038;28;20049;-64
2022/03/03 12:33:19;;;;;;;16.52;12.63;;;;;;;;;;5052508;28;20044;-64
2022/03/03 12:35:47;;;;;;;16.88;13.57;;;;;;;;;;5053317;28;20055;-64
2022/03/03 12:38:13;;;;;;;18.00;12.65;;;;;;;;;;5068606;28;20095;-64
2022/03/03 12:40:39;;;;;;;17.90;12.80;;;;;;;;;;5052700;28;20094;-65
2022/03/03 12:43:12;;;;;;;16.63;12.95;;;;;;;;;;5053483;28;20131;-64
2022/03/03 12:45:39;;;;;;;15.27;12.18;;;;;;;;;;5053181;28;20060;-64
2022/03/03 12:48:06;;;;;;;13.98;12.20;;;;;;;;;;5052380;28;20053;-64
2022/03/03 12:50:33;;;;;;;16.40;12.02;;;;;;;;;;5052966;28;20151;-64
2022/03/03 12:53:02;;;;;;;15.10;12.65;;;;;;;;;;5053036;28;20397;-64
2022/03/03 12:55:30;;;;;;;16.17;12.63;;;;;;;;;;5052445;28;20041;-64
2022/03/03 12:57:57;;;;;;;18.73;14.18;;;;;;;;;;5052790;28;20152;-64
2022/03/03 13:00:23;;;;;;;18.83;14.48;;;;;;;;;;5034261;28;20114;-64
2022/03/03 13:02:52;;;;;;;17.38;13.45;;;;;;;;;;5052522;28;20055;-64
2022/03/03 13:05:28;;;;;;;16.83;13.60;;;;;;;;;;5052834;28;20445;-64
2022/03/03 13:07:54;;;;;;;17.95;13.18;;;;;;;;;;5067327;28;20520;-64
2022/03/03 13:10:21;;;;;;;15.02;12.35;;;;;;;;;;5052702;28;20515;-64
2022/03/03 13:12:48;;;;;;;14.07;12.18;;;;;;;;;;5052631;28;20060;-64
2022/03/03 13:15:14;;;;;;;15.60;11.20;;;;;;;;;;5051894;28;20059;-64
2022/03/03 13:17:57;;;;;;;12.45;10.00;;;;;;;;;;5052576;28;20040;-64
2022/03/03 13:20:23;;;;;;;16.63;11.43;;;;;;;;;;5052691;28;20049;-64
2022/03/03 13:22:49;;;;;;;14.07;11.93;;;;;;;;;;5067256;28;20283;-64
2022/03/03 13:25:16;;;;;;;15.75;13.07;;;;;;;;;;5052565;28;20495;-64
2022/03/03 13:27:43;;;;;;;16.02;12.63;;;;;;;;;;5052483;28;20040;-64
2022/03/03 13:30:10;;;;;;;16.15;12.25;;;;;;;;;;5033461;28;20041;-64
2022/03/03 13:32:43;;;;;;;19.85;12.52;;;;;;;;;;5052437;28;20131;-64
2022/03/03 13:35:09;;;;;;;16.13;10.93;;;;;;;;;;5034613;28;20048;-64
2022/03/03 13:37:35;;;;;;;20.92;12.65;;;;;;;;;;5067204;28;20060;-64
2022/03/03 13:40:13;;;;;;;19.27;12.63;;;;;;;;;;5052085;28;20450;-65
2022/03/03 13:42:39;;;;;;;16.80;13.07;;;;;;;;;;5051513;28;20099;-64
2022/03/03 13:45:05;;;;;;;18.77;13.25;;;;;;;;;;5067196;28;20480;-64
2022/03/03 13:47:34;;;;;;;14.55;11.02;;;;;;;;;;5034443;28;20124;-64
2022/03/03 13:50:01;;;;;;;15.18;10.50;;;;;;;;;;5033145;28;20473;-65
2022/03/03 13:52:27;;;;;;;14.85;11.50;;;;;;;;;;5067436;28;20052;-64
2022/03/03 13:54:58;;;;;;;17.08;11.43;;;;;;;;;;5052023;28;20481;-64
2022/03/03 13:57:36;;;;;;;18.17;12.43;;;;;;;;;;5033178;28;20056;-65
2022/03/03 14:00:05;;;;;;;15.63;11.93;;;;;;;;;;5067612;28;20398;-64
2022/03/03 14:02:31;;;;;;;15.75;11.80;;;;;;;;;;5067603;28;20055;-64
2022/03/03 14:05:06;;;;;;;14.80;11.98;;;;;;;;;;5050661;28;20057;-64
2022/03/03 14:07:34;;;;;;;18.00;13.50;;;;;;;;;;5052046;28;20127;-65
2022/03/03 14:10:01;;;;;;;19.63;13.32;;;;;;;;;;5051993;28;20106;-64
2022/03/03 14:12:27;;;;;;;16.58;13.25;;;;;;;;;;5051193;28;20045;-64
2022/03/03 14:14:54;;;;;;;16.08;12.75;;;;;;;;;;5051971;28;20048;-64
2022/03/03 14:17:20;;;;;;;17.33;12.50;;;;;;;;;;5051824;28;20117;-64